sensor_id;sensor_type;location;lat;lon;timestamp;P1;durP1;ratioP1;P2;durP2;ratioP2
54875;SDS011;40764;48.472;8.166;2022-07-29T00:02:14;6.60;;;4.77;;
54875;SDS011;40764;48.472;8.166;2022-07-29T00:08:15;5.30;;;4.73;;
54875;SDS011;40764;48.472;8.166;2022-07-29T00:14:15;6.28;;;4.10;;
54875;SDS011;40764;48.472;8.166;2022-07-29T00:20:15;5.75;;;4.45;;
54875;SDS011;40764;48.472;8.166;2022-07-29T00:26:16;7.65;;;4.75;;
54875;SDS011;40764;48.472;8.166;2022-07-29T00:32:16;4.77;;;4.27;;
54875;SDS011;40764;48.472;8.166;2022-07-29T00:38:17;6.27;;;5.10;;
54875;SDS011;40764;48.472;8.166;2022-07-29T00:44:19;6.60;;;4.55;;
54875;SDS011;40764;48.472;8.166;2022-07-29T00:50:20;10.20;;;4.72;;
54875;SDS011;40764;48.472;8.166;2022-07-29T00:56:20;9.10;;;4.93;;
54875;SDS011;40764;48.472;8.166;2022-07-29T01:02:21;5.27;;;4.70;;
54875;SDS011;40764;48.472;8.166;2022-07-29T01:08:21;5.10;;;4.50;;
54875;SDS011;40764;48.472;8.166;2022-07-29T01:14:23;6.13;;;4.45;;
54875;SDS011;40764;48.472;8.166;2022-07-29T01:27:02;8.07;;;4.43;;
54875;SDS011;40764;48.472;8.166;2022-07-29T01:33:17;5.10;;;4.07;;
54875;SDS011;40764;48.472;8.166;2022-07-29T01:39:40;4.93;;;4.30;;
54875;SDS011;40764;48.472;8.166;2022-07-29T01:45:48;9.23;;;5.00;;
54875;SDS011;40764;48.472;8.166;2022-07-29T01:51:57;7.50;;;4.95;;
54875;SDS011;40764;48.472;8.166;2022-07-29T01:58:00;5.57;;;4.45;;
54875;SDS011;40764;48.472;8.166;2022-07-29T02:04:04;6.10;;;5.10;;
54875;SDS011;40764;48.472;8.166;2022-07-29T02:10:07;5.22;;;4.47;;
54875;SDS011;40764;48.472;8.166;2022-07-29T02:16:10;8.95;;;5.10;;
54875;SDS011;40764;48.472;8.166;2022-07-29T02:28:12;8.40;;;4.93;;
54875;SDS011;40764;48.472;8.166;2022-07-29T02:34:15;6.00;;;4.95;;
54875;SDS011;40764;48.472;8.166;2022-07-29T02:40:17;9.23;;;4.80;;
54875;SDS011;40764;48.472;8.166;2022-07-29T02:46:19;8.87;;;5.93;;
54875;SDS011;40764;48.472;8.166;2022-07-29T02:52:45;9.43;;;6.10;;
54875;SDS011;40764;48.472;8.166;2022-07-29T02:58:53;11.50;;;5.30;;
54875;SDS011;40764;48.472;8.166;2022-07-29T03:04:56;11.57;;;5.38;;
54875;SDS011;40764;48.472;8.166;2022-07-29T03:10:58;8.18;;;4.68;;
54875;SDS011;40764;48.472;8.166;2022-07-29T03:16:59;7.50;;;6.07;;
54875;SDS011;40764;48.472;8.166;2022-07-29T03:23:00;7.80;;;6.20;;
54875;SDS011;40764;48.472;8.166;2022-07-29T03:29:00;7.23;;;6.17;;
54875;SDS011;40764;48.472;8.166;2022-07-29T03:35:01;9.95;;;6.40;;
54875;SDS011;40764;48.472;8.166;2022-07-29T03:41:05;7.77;;;5.93;;
54875;SDS011;40764;48.472;8.166;2022-07-29T03:47:08;9.30;;;7.43;;
54875;SDS011;40764;48.472;8.166;2022-07-29T03:53:10;10.70;;;6.57;;
54875;SDS011;40764;48.472;8.166;2022-07-29T03:59:11;12.70;;;7.47;;
54875;SDS011;40764;48.472;8.166;2022-07-29T04:05:14;8.40;;;6.72;;
54875;SDS011;40764;48.472;8.166;2022-07-29T04:11:14;10.10;;;7.17;;
54875;SDS011;40764;48.472;8.166;2022-07-29T04:17:15;13.20;;;7.20;;
54875;SDS011;40764;48.472;8.166;2022-07-29T04:23:15;7.70;;;6.63;;
54875;SDS011;40764;48.472;8.166;2022-07-29T04:29:16;13.73;;;7.30;;
54875;SDS011;40764;48.472;8.166;2022-07-29T04:35:16;10.85;;;7.30;;
54875;SDS011;40764;48.472;8.166;2022-07-29T04:41:16;11.70;;;6.93;;
54875;SDS011;40764;48.472;8.166;2022-07-29T04:47:17;10.57;;;7.43;;
54875;SDS011;40764;48.472;8.166;2022-07-29T04:53:18;10.83;;;7.40;;
54875;SDS011;40764;48.472;8.166;2022-07-29T04:59:18;9.53;;;7.07;;
54875;SDS011;40764;48.472;8.166;2022-07-29T05:05:19;14.40;;;7.00;;
54875;SDS011;40764;48.472;8.166;2022-07-29T05:11:19;11.03;;;7.97;;
54875;SDS011;40764;48.472;8.166;2022-07-29T05:17:19;17.58;;;7.95;;
54875;SDS011;40764;48.472;8.166;2022-07-29T05:23:20;11.93;;;7.80;;
54875;SDS011;40764;48.472;8.166;2022-07-29T05:29:20;15.57;;;7.80;;
54875;SDS011;40764;48.472;8.166;2022-07-29T05:35:20;10.93;;;7.60;;
54875;SDS011;40764;48.472;8.166;2022-07-29T05:41:21;13.97;;;8.17;;
54875;SDS011;40764;48.472;8.166;2022-07-29T05:47:22;10.30;;;7.40;;
54875;SDS011;40764;48.472;8.166;2022-07-29T05:53:22;8.90;;;7.00;;
54875;SDS011;40764;48.472;8.166;2022-07-29T05:59:23;9.80;;;7.63;;
54875;SDS011;40764;48.472;8.166;2022-07-29T06:05:23;11.00;;;6.73;;
54875;SDS011;40764;48.472;8.166;2022-07-29T06:11:24;10.48;;;6.65;;
54875;SDS011;40764;48.472;8.166;2022-07-29T06:17:24;8.70;;;6.93;;
54875;SDS011;40764;48.472;8.166;2022-07-29T06:23:25;18.30;;;10.23;;
54875;SDS011;40764;48.472;8.166;2022-07-29T06:29:25;12.30;;;7.27;;
54875;SDS011;40764;48.472;8.166;2022-07-29T06:35:26;11.90;;;6.88;;
54875;SDS011;40764;48.472;8.166;2022-07-29T06:41:26;34.58;;;8.45;;
54875;SDS011;40764;48.472;8.166;2022-07-29T06:47:26;10.18;;;6.68;;
54875;SDS011;40764;48.472;8.166;2022-07-29T06:53:27;16.25;;;6.70;;
54875;SDS011;40764;48.472;8.166;2022-07-29T06:59:28;16.08;;;6.72;;
54875;SDS011;40764;48.472;8.166;2022-07-29T07:05:28;13.25;;;6.38;;
54875;SDS011;40764;48.472;8.166;2022-07-29T07:11:29;8.10;;;5.77;;
54875;SDS011;40764;48.472;8.166;2022-07-29T07:17:29;10.80;;;6.17;;
54875;SDS011;40764;48.472;8.166;2022-07-29T07:23:29;15.73;;;6.20;;
54875;SDS011;40764;48.472;8.166;2022-07-29T07:29:30;12.30;;;5.67;;
54875;SDS011;40764;48.472;8.166;2022-07-29T07:35:30;12.35;;;5.70;;
54875;SDS011;40764;48.472;8.166;2022-07-29T07:41:31;12.23;;;5.53;;
54875;SDS011;40764;48.472;8.166;2022-07-29T07:47:32;7.87;;;5.23;;
54875;SDS011;40764;48.472;8.166;2022-07-29T07:53:32;7.90;;;4.53;;
54875;SDS011;40764;48.472;8.166;2022-07-29T07:59:33;13.23;;;4.82;;
54875;SDS011;40764;48.472;8.166;2022-07-29T08:05:34;11.23;;;4.07;;
54875;SDS011;40764;48.472;8.166;2022-07-29T08:11:36;13.45;;;4.35;;
54875;SDS011;40764;48.472;8.166;2022-07-29T08:17:36;6.05;;;5.10;;
54875;SDS011;40764;48.472;8.166;2022-07-29T08:23:36;10.52;;;4.43;;
54875;SDS011;40764;48.472;8.166;2022-07-29T08:29:45;10.52;;;5.00;;
54875;SDS011;40764;48.472;8.166;2022-07-29T08:35:46;11.37;;;4.70;;
54875;SDS011;40764;48.472;8.166;2022-07-29T08:41:46;8.60;;;4.60;;
54875;SDS011;40764;48.472;8.166;2022-07-29T08:47:47;12.32;;;4.90;;
54875;SDS011;40764;48.472;8.166;2022-07-29T08:53:48;8.33;;;4.17;;
54875;SDS011;40764;48.472;8.166;2022-07-29T08:59:50;8.75;;;4.25;;
54875;SDS011;40764;48.472;8.166;2022-07-29T09:05:52;10.25;;;4.85;;
54875;SDS011;40764;48.472;8.166;2022-07-29T09:11:53;16.45;;;4.22;;
54875;SDS011;40764;48.472;8.166;2022-07-29T09:17:54;9.43;;;4.27;;
54875;SDS011;40764;48.472;8.166;2022-07-29T09:30:06;12.10;;;4.15;;
54875;SDS011;40764;48.472;8.166;2022-07-29T09:36:12;14.88;;;4.32;;
54875;SDS011;40764;48.472;8.166;2022-07-29T09:42:12;12.30;;;3.93;;
54875;SDS011;40764;48.472;8.166;2022-07-29T09:48:14;6.27;;;3.83;;
54875;SDS011;40764;48.472;8.166;2022-07-29T10:00:26;11.85;;;4.40;;
54875;SDS011;40764;48.472;8.166;2022-07-29T10:06:26;8.07;;;3.80;;
54875;SDS011;40764;48.472;8.166;2022-07-29T10:12:26;6.40;;;3.67;;
54875;SDS011;40764;48.472;8.166;2022-07-29T10:18:27;11.23;;;3.85;;
54875;SDS011;40764;48.472;8.166;2022-07-29T10:30:29;11.73;;;3.00;;
54875;SDS011;40764;48.472;8.166;2022-07-29T10:36:54;26.88;;;3.35;;
54875;SDS011;40764;48.472;8.166;2022-07-29T10:43:07;7.80;;;3.30;;
54875;SDS011;40764;48.472;8.166;2022-07-29T10:49:28;4.25;;;2.72;;
54875;SDS011;40764;48.472;8.166;2022-07-29T10:55:33;15.93;;;3.30;;
54875;SDS011;40764;48.472;8.166;2022-07-29T11:01:40;9.90;;;3.57;;
54875;SDS011;40764;48.472;8.166;2022-07-29T11:08:16;12.90;;;2.87;;
54875;SDS011;40764;48.472;8.166;2022-07-29T11:14:12;8.13;;;2.95;;
54875;SDS011;40764;48.472;8.166;2022-07-29T11:26:45;6.53;;;2.95;;
54875;SDS011;40764;48.472;8.166;2022-07-29T11:32:45;7.60;;;3.10;;
54875;SDS011;40764;48.472;8.166;2022-07-29T11:44:53;9.30;;;3.45;;
54875;SDS011;40764;48.472;8.166;2022-07-29T11:50:58;13.73;;;4.30;;
54875;SDS011;40764;48.472;8.166;2022-07-29T11:56:59;10.75;;;3.88;;
54875;SDS011;40764;48.472;8.166;2022-07-29T12:03:01;11.55;;;3.42;;
54875;SDS011;40764;48.472;8.166;2022-07-29T12:09:08;8.70;;;4.28;;
54875;SDS011;40764;48.472;8.166;2022-07-29T12:15:13;11.70;;;3.60;;
54875;SDS011;40764;48.472;8.166;2022-07-29T12:21:20;6.77;;;3.10;;
54875;SDS011;40764;48.472;8.166;2022-07-29T12:27:20;8.60;;;3.00;;
54875;SDS011;40764;48.472;8.166;2022-07-29T12:33:25;11.33;;;3.53;;
54875;SDS011;40764;48.472;8.166;2022-07-29T12:39:29;10.43;;;3.22;;
54875;SDS011;40764;48.472;8.166;2022-07-29T12:45:30;12.57;;;3.63;;
54875;SDS011;40764;48.472;8.166;2022-07-29T12:57:45;6.43;;;3.45;;
54875;SDS011;40764;48.472;8.166;2022-07-29T13:03:49;5.60;;;3.03;;
54875;SDS011;40764;48.472;8.166;2022-07-29T13:09:51;13.88;;;3.63;;
54875;SDS011;40764;48.472;8.166;2022-07-29T13:16:05;7.87;;;3.40;;
54875;SDS011;40764;48.472;8.166;2022-07-29T13:22:08;8.15;;;3.35;;
54875;SDS011;40764;48.472;8.166;2022-07-29T13:28:10;8.13;;;3.10;;
54875;SDS011;40764;48.472;8.166;2022-07-29T13:34:11;5.47;;;3.13;;
54875;SDS011;40764;48.472;8.166;2022-07-29T13:40:12;8.87;;;3.20;;
54875;SDS011;40764;48.472;8.166;2022-07-29T13:46:12;7.47;;;3.15;;
54875;SDS011;40764;48.472;8.166;2022-07-29T13:52:13;10.27;;;3.83;;
54875;SDS011;40764;48.472;8.166;2022-07-29T13:58:13;6.97;;;3.53;;
54875;SDS011;40764;48.472;8.166;2022-07-29T14:04:14;10.40;;;3.10;;
54875;SDS011;40764;48.472;8.166;2022-07-29T14:10:15;6.25;;;2.70;;
54875;SDS011;40764;48.472;8.166;2022-07-29T14:16:15;7.05;;;3.22;;
54875;SDS011;40764;48.472;8.166;2022-07-29T14:22:15;10.83;;;3.27;;
54875;SDS011;40764;48.472;8.166;2022-07-29T14:28:18;11.88;;;3.53;;
54875;SDS011;40764;48.472;8.166;2022-07-29T14:34:19;5.75;;;2.75;;
54875;SDS011;40764;48.472;8.166;2022-07-29T14:40:19;6.67;;;2.83;;
54875;SDS011;40764;48.472;8.166;2022-07-29T14:46:20;12.33;;;3.00;;
54875;SDS011;40764;48.472;8.166;2022-07-29T14:52:20;9.73;;;3.27;;
54875;SDS011;40764;48.472;8.166;2022-07-29T14:58:20;10.37;;;2.57;;
54875;SDS011;40764;48.472;8.166;2022-07-29T15:04:22;9.55;;;2.38;;
54875;SDS011;40764;48.472;8.166;2022-07-29T15:10:23;5.83;;;2.40;;
54875;SDS011;40764;48.472;8.166;2022-07-29T15:16:23;10.07;;;2.47;;
54875;SDS011;40764;48.472;8.166;2022-07-29T15:22:24;4.10;;;2.23;;
54875;SDS011;40764;48.472;8.166;2022-07-29T15:28:24;5.13;;;2.20;;
54875;SDS011;40764;48.472;8.166;2022-07-29T15:34:24;22.43;;;4.63;;
54875;SDS011;40764;48.472;8.166;2022-07-29T15:40:25;6.20;;;2.28;;
54875;SDS011;40764;48.472;8.166;2022-07-29T15:46:25;6.73;;;2.50;;
54875;SDS011;40764;48.472;8.166;2022-07-29T15:52:44;9.95;;;1.90;;
54875;SDS011;40764;48.472;8.166;2022-07-29T15:58:44;6.60;;;2.60;;
54875;SDS011;40764;48.472;8.166;2022-07-29T16:04:45;9.77;;;2.63;;
54875;SDS011;40764;48.472;8.166;2022-07-29T16:10:46;9.15;;;3.35;;
54875;SDS011;40764;48.472;8.166;2022-07-29T16:16:46;11.53;;;3.00;;
54875;SDS011;40764;48.472;8.166;2022-07-29T16:22:47;10.05;;;3.20;;
54875;SDS011;40764;48.472;8.166;2022-07-29T16:28:47;10.10;;;2.60;;
54875;SDS011;40764;48.472;8.166;2022-07-29T16:34:49;18.85;;;13.45;;
54875;SDS011;40764;48.472;8.166;2022-07-29T16:40:49;8.63;;;2.70;;
54875;SDS011;40764;48.472;8.166;2022-07-29T16:46:50;10.70;;;4.13;;
54875;SDS011;40764;48.472;8.166;2022-07-29T16:52:50;14.70;;;3.30;;
54875;SDS011;40764;48.472;8.166;2022-07-29T17:04:51;6.28;;;2.80;;
54875;SDS011;40764;48.472;8.166;2022-07-29T17:10:51;6.10;;;2.80;;
54875;SDS011;40764;48.472;8.166;2022-07-29T17:16:52;8.07;;;2.43;;
54875;SDS011;40764;48.472;8.166;2022-07-29T17:22:54;17.65;;;4.78;;
54875;SDS011;40764;48.472;8.166;2022-07-29T17:28:54;7.53;;;3.37;;
54875;SDS011;40764;48.472;8.166;2022-07-29T17:34:55;11.07;;;3.03;;
54875;SDS011;40764;48.472;8.166;2022-07-29T17:40:55;3.50;;;2.20;;
54875;SDS011;40764;48.472;8.166;2022-07-29T17:46:56;6.43;;;2.13;;
54875;SDS011;40764;48.472;8.166;2022-07-29T17:52:56;8.27;;;3.00;;
54875;SDS011;40764;48.472;8.166;2022-07-29T17:58:56;4.35;;;2.28;;
54875;SDS011;40764;48.472;8.166;2022-07-29T18:05:00;14.18;;;3.13;;
54875;SDS011;40764;48.472;8.166;2022-07-29T18:11:00;8.00;;;2.47;;
54875;SDS011;40764;48.472;8.166;2022-07-29T18:23:01;8.10;;;2.20;;
54875;SDS011;40764;48.472;8.166;2022-07-29T18:29:01;12.77;;;3.60;;
54875;SDS011;40764;48.472;8.166;2022-07-29T18:47:04;8.35;;;2.92;;
54875;SDS011;40764;48.472;8.166;2022-07-29T18:53:04;8.47;;;2.80;;
54875;SDS011;40764;48.472;8.166;2022-07-29T18:59:05;8.85;;;2.60;;
54875;SDS011;40764;48.472;8.166;2022-07-29T19:05:07;13.60;;;2.65;;
54875;SDS011;40764;48.472;8.166;2022-07-29T19:11:08;7.22;;;3.35;;
54875;SDS011;40764;48.472;8.166;2022-07-29T19:17:09;9.27;;;2.73;;
54875;SDS011;40764;48.472;8.166;2022-07-29T19:23:09;5.07;;;2.72;;
54875;SDS011;40764;48.472;8.166;2022-07-29T19:29:09;8.30;;;4.07;;
54875;SDS011;40764;48.472;8.166;2022-07-29T19:35:10;10.67;;;3.57;;
54875;SDS011;40764;48.472;8.166;2022-07-29T19:41:29;6.82;;;3.13;;
54875;SDS011;40764;48.472;8.166;2022-07-29T19:47:29;5.87;;;2.93;;
54875;SDS011;40764;48.472;8.166;2022-07-29T19:53:30;10.93;;;2.97;;
54875;SDS011;40764;48.472;8.166;2022-07-29T20:05:32;3.65;;;2.50;;
54875;SDS011;40764;48.472;8.166;2022-07-29T20:11:32;5.27;;;2.63;;
54875;SDS011;40764;48.472;8.166;2022-07-29T20:17:36;5.70;;;2.67;;
54875;SDS011;40764;48.472;8.166;2022-07-29T20:23:36;6.50;;;2.80;;
54875;SDS011;40764;48.472;8.166;2022-07-29T20:29:36;10.80;;;3.00;;
54875;SDS011;40764;48.472;8.166;2022-07-29T20:35:37;6.17;;;2.50;;
54875;SDS011;40764;48.472;8.166;2022-07-29T20:41:39;3.50;;;2.15;;
54875;SDS011;40764;48.472;8.166;2022-07-29T20:47:39;9.23;;;2.87;;
54875;SDS011;40764;48.472;8.166;2022-07-29T20:53:40;3.50;;;2.47;;
54875;SDS011;40764;48.472;8.166;2022-07-29T20:59:40;6.60;;;2.60;;
54875;SDS011;40764;48.472;8.166;2022-07-29T21:05:42;7.75;;;2.65;;
54875;SDS011;40764;48.472;8.166;2022-07-29T21:11:44;4.60;;;2.53;;
54875;SDS011;40764;48.472;8.166;2022-07-29T21:17:44;4.03;;;2.73;;
54875;SDS011;40764;48.472;8.166;2022-07-29T21:23:46;6.38;;;2.28;;
54875;SDS011;40764;48.472;8.166;2022-07-29T21:29:46;6.30;;;2.50;;
54875;SDS011;40764;48.472;8.166;2022-07-29T21:35:46;8.20;;;2.60;;
54875;SDS011;40764;48.472;8.166;2022-07-29T21:41:47;7.93;;;3.13;;
54875;SDS011;40764;48.472;8.166;2022-07-29T21:47:48;3.50;;;2.10;;
54875;SDS011;40764;48.472;8.166;2022-07-29T21:53:48;6.25;;;2.85;;
54875;SDS011;40764;48.472;8.166;2022-07-29T21:59:49;10.52;;;2.80;;
54875;SDS011;40764;48.472;8.166;2022-07-29T22:05:49;3.60;;;2.43;;
54875;SDS011;40764;48.472;8.166;2022-07-29T22:11:50;6.23;;;3.30;;
54875;SDS011;40764;48.472;8.166;2022-07-29T22:17:50;7.63;;;3.43;;
54875;SDS011;40764;48.472;8.166;2022-07-29T22:23:51;7.00;;;2.67;;
54875;SDS011;40764;48.472;8.166;2022-07-29T22:29:51;6.38;;;3.33;;
54875;SDS011;40764;48.472;8.166;2022-07-29T22:35:51;6.40;;;2.60;;
54875;SDS011;40764;48.472;8.166;2022-07-29T22:41:52;9.60;;;3.15;;
54875;SDS011;40764;48.472;8.166;2022-07-29T22:47:52;5.82;;;3.03;;
54875;SDS011;40764;48.472;8.166;2022-07-29T22:53:52;6.53;;;2.85;;
54875;SDS011;40764;48.472;8.166;2022-07-29T22:59:53;7.00;;;2.67;;
54875;SDS011;40764;48.472;8.166;2022-07-29T23:05:53;9.27;;;2.78;;
54875;SDS011;40764;48.472;8.166;2022-07-29T23:11:54;6.93;;;3.10;;
54875;SDS011;40764;48.472;8.166;2022-07-29T23:17:54;4.50;;;2.63;;
54875;SDS011;40764;48.472;8.166;2022-07-29T23:23:54;6.82;;;3.10;;
54875;SDS011;40764;48.472;8.166;2022-07-29T23:29:55;7.10;;;3.13;;
54875;SDS011;40764;48.472;8.166;2022-07-29T23:35:55;13.40;;;4.03;;
54875;SDS011;40764;48.472;8.166;2022-07-29T23:41:55;6.55;;;3.50;;
54875;SDS011;40764;48.472;8.166;2022-07-29T23:47:56;9.52;;;3.05;;
54875;SDS011;40764;48.472;8.166;2022-07-29T23:53:56;6.97;;;2.80;;
54875;SDS011;40764;48.472;8.166;2022-07-29T23:59:56;7.38;;;3.03;;
